createdAt,value
2022-11-05T00:03:27.475Z,0
2022-11-05T00:09:27.404Z,0
2022-11-05T00:15:27.464Z,0
2022-11-05T00:21:27.402Z,0
2022-11-05T00:27:27.415Z,0
2022-11-05T00:33:27.424Z,0
2022-11-05T00:39:27.379Z,0
2022-11-05T00:45:27.467Z,0
2022-11-05T00:51:27.631Z,0
2022-11-05T00:57:27.374Z,0
2022-11-05T01:03:27.382Z,0
2022-11-05T01:09:27.428Z,0
2022-11-05T01:19:27.391Z,0
2022-11-05T01:25:27.470Z,0
2022-11-05T01:31:27.400Z,0
2022-11-05T01:37:27.398Z,0
2022-11-05T01:43:27.592Z,0
2022-11-05T01:49:27.394Z,0
2022-11-05T01:55:27.415Z,0
2022-11-05T02:01:27.536Z,0
2022-11-05T02:07:27.421Z,0
2022-11-05T02:13:27.400Z,0
2022-11-05T02:19:27.513Z,0
2022-11-05T02:25:27.396Z,0
2022-11-05T02:31:27.398Z,0
2022-11-05T02:37:27.437Z,0
2022-11-05T02:43:27.400Z,0
2022-11-05T02:49:27.388Z,0
2022-11-05T02:55:27.426Z,0
2022-11-05T03:01:27.527Z,0
2022-11-05T03:07:27.418Z,0
2022-11-05T03:13:27.403Z,0
2022-11-05T03:19:27.466Z,0
2022-11-05T03:25:27.401Z,0
2022-11-05T03:31:27.470Z,0
2022-11-05T03:37:27.406Z,0
2022-11-05T03:43:27.421Z,0
2022-11-05T03:49:27.399Z,0
2022-11-05T03:55:27.397Z,0
2022-11-05T04:01:27.534Z,0
2022-11-05T04:07:27.422Z,0
2022-11-05T04:13:27.390Z,0
2022-11-05T04:19:27.403Z,0
2022-11-05T04:25:28.208Z,0
2022-11-05T04:31:27.402Z,0
2022-11-05T04:37:27.408Z,0
2022-11-05T04:43:27.423Z,0
2022-11-05T04:49:27.375Z,0
2022-11-05T04:55:27.403Z,0
2022-11-05T05:01:27.663Z,0
2022-11-05T05:07:27.386Z,0
2022-11-05T05:13:27.388Z,0
2022-11-05T05:19:27.509Z,0
2022-11-05T05:25:27.396Z,0
2022-11-05T05:31:27.392Z,0
2022-11-05T05:37:27.504Z,0
2022-11-05T05:43:27.395Z,0
2022-11-05T05:49:27.403Z,0
2022-11-05T05:55:27.434Z,0
2022-11-05T06:01:27.495Z,0
2022-11-05T06:07:27.465Z,0
2022-11-05T06:13:27.410Z,0
2022-11-05T06:19:27.371Z,0
2022-11-05T06:25:27.398Z,0
2022-11-05T06:31:27.427Z,0
2022-11-05T06:37:27.398Z,0
2022-11-05T06:43:27.418Z,0
2022-11-05T06:49:27.414Z,0
2022-11-05T06:55:27.396Z,0
2022-11-05T07:01:27.489Z,0
2022-11-05T07:07:27.446Z,0
2022-11-05T07:13:27.391Z,0
2022-11-05T07:19:27.404Z,0
2022-11-05T07:25:27.464Z,0
2022-11-05T07:31:27.405Z,0
2022-11-05T07:37:27.397Z,0
2022-11-05T07:43:27.480Z,0
2022-11-05T07:49:27.413Z,0
2022-11-05T07:55:27.397Z,0
2022-11-05T08:01:27.677Z,0
2022-11-05T08:07:27.404Z,0
2022-11-05T08:13:27.381Z,0
2022-11-05T08:19:27.430Z,0
2022-11-05T08:25:27.418Z,2.5
2022-11-05T08:31:27.443Z,1.2
2022-11-05T08:37:27.469Z,0
2022-11-05T08:43:27.420Z,3.2
2022-11-05T08:49:27.385Z,4.9
2022-11-05T08:55:27.464Z,6.6
2022-11-05T09:01:27.625Z,7.6
2022-11-05T09:07:27.409Z,8.6
2022-11-05T09:13:27.785Z,8.7
2022-11-05T09:19:27.411Z,9.1
2022-11-05T09:25:27.409Z,8.8
2022-11-05T09:31:27.759Z,8.7
2022-11-05T09:37:27.395Z,8.7
2022-11-05T09:43:31.719Z,4.3
2022-11-05T09:49:27.442Z,5.1
2022-11-05T09:55:27.399Z,7.2
2022-11-05T10:01:27.537Z,8.8
2022-11-05T10:07:27.454Z,10.1
2022-11-05T10:13:27.410Z,9.6
2022-11-05T10:19:27.403Z,7.8
2022-11-05T10:25:27.434Z,7.2
2022-11-05T10:31:31.488Z,5.5
2022-11-05T10:37:27.421Z,5
2022-11-05T10:43:27.548Z,7
2022-11-05T10:49:27.412Z,7.9
2022-11-05T10:55:27.421Z,6.1
2022-11-05T11:01:27.573Z,5.3
2022-11-05T11:07:27.427Z,4.8
2022-11-05T11:13:27.422Z,4.6
2022-11-05T11:19:27.460Z,4.2
2022-11-05T11:25:27.406Z,4.2
2022-11-05T11:31:27.431Z,4.4
2022-11-05T11:37:27.421Z,5.2
2022-11-05T11:43:27.432Z,5.3
2022-11-05T11:49:27.434Z,4.7
2022-11-05T11:55:27.438Z,4.3
2022-11-05T12:01:27.556Z,4.2
2022-11-05T12:07:27.433Z,4.5
2022-11-05T12:13:27.474Z,3.9
2022-11-05T12:19:27.405Z,4.8
2022-11-05T12:25:27.410Z,4.1
2022-11-05T12:31:27.461Z,4.1
2022-11-05T12:37:27.490Z,3.8
2022-11-05T12:43:27.442Z,3.7
2022-11-05T12:49:27.531Z,4.9
2022-11-05T12:55:27.439Z,4.8
2022-11-05T13:01:27.586Z,4.3
2022-11-05T13:07:27.473Z,4.9
2022-11-05T13:13:27.413Z,4.6
2022-11-05T13:19:27.412Z,4.7
2022-11-05T13:25:27.452Z,4.6
2022-11-05T13:31:27.446Z,4.8
2022-11-05T13:37:27.419Z,4.5
2022-11-05T13:43:27.467Z,4.4
2022-11-05T13:49:27.424Z,4.5
2022-11-05T13:55:27.444Z,4.6
2022-11-05T14:01:27.641Z,4.8
2022-11-05T14:07:31.212Z,4.1
2022-11-05T14:13:27.449Z,4.4
2022-11-05T14:19:27.673Z,4
2022-11-05T14:25:27.443Z,3.8
2022-11-05T14:31:47.441Z,3.7
2022-11-05T14:37:27.451Z,3.6
2022-11-05T14:43:27.426Z,3.9
2022-11-05T14:49:27.427Z,3.9
2022-11-05T14:55:27.555Z,3.8
2022-11-05T15:01:27.626Z,4
2022-11-05T15:07:38.266Z,3.7
2022-11-05T15:13:27.529Z,3.4
2022-11-05T15:19:27.452Z,3.7
2022-11-05T15:25:27.510Z,3.7
2022-11-05T15:31:27.437Z,3.4
2022-11-05T15:37:27.482Z,3.2
2022-11-05T15:43:27.431Z,3.1
2022-11-05T15:49:27.446Z,3.1
2022-11-05T15:55:27.442Z,3.1
2022-11-05T16:01:27.551Z,2.7
2022-11-05T16:07:45.263Z,2.8
2022-11-05T16:13:27.418Z,2.7
2022-11-05T16:19:27.439Z,2.6
2022-11-05T16:25:27.455Z,2.3
2022-11-05T16:31:27.435Z,2.2
2022-11-05T16:37:27.424Z,2.3
2022-11-05T16:43:27.566Z,2.6
2022-11-05T16:49:27.411Z,2.1
2022-11-05T16:55:27.447Z,1.8
2022-11-05T17:01:27.733Z,1.7
2022-11-05T17:07:30.657Z,1.3
2022-11-05T17:13:27.421Z,1.2
2022-11-05T17:19:27.630Z,0.9
2022-11-05T17:25:27.421Z,0.5
2022-11-05T17:31:27.424Z,0.7
2022-11-05T17:37:27.462Z,0.4
2022-11-05T17:43:27.441Z,0.7
2022-11-05T17:49:27.416Z,0.8
2022-11-05T17:55:27.519Z,0.8
2022-11-05T18:01:27.597Z,1
2022-11-05T18:07:27.441Z,0.7
2022-11-05T18:13:27.459Z,0.9
2022-11-05T18:19:27.420Z,0.7
2022-11-05T18:25:27.462Z,0.6
2022-11-05T18:31:27.455Z,0.7
2022-11-05T18:37:27.497Z,0.8
2022-11-05T18:43:27.438Z,0.8
2022-11-05T18:49:27.440Z,0.8
2022-11-05T18:55:27.436Z,0.7
2022-11-05T19:01:27.808Z,0.6
2022-11-05T19:07:27.434Z,0.8
2022-11-05T19:13:27.465Z,0.9
2022-11-05T19:19:27.420Z,0.7
2022-11-05T19:25:27.530Z,0.8
2022-11-05T19:31:27.445Z,0.6
2022-11-05T19:37:27.419Z,0.5
2022-11-05T19:43:27.454Z,0.6
2022-11-05T19:49:27.452Z,0.6
2022-11-05T19:55:27.418Z,0.6
2022-11-05T20:01:27.625Z,0.4
2022-11-05T20:07:27.423Z,0.3
2022-11-05T20:13:27.415Z,0.3
2022-11-05T20:19:27.479Z,0.2
2022-11-05T20:25:27.413Z,0.4
2022-11-05T20:31:27.431Z,0.2
2022-11-05T20:37:27.459Z,0.3
2022-11-05T20:43:30.355Z,0.3
2022-11-05T20:49:27.460Z,0.1
2022-11-05T20:55:27.483Z,0
2022-11-05T21:01:27.677Z,0
2022-11-05T21:07:27.403Z,0
2022-11-05T21:13:27.461Z,0
2022-11-05T21:19:27.399Z,0
2022-11-05T21:25:27.432Z,0
2022-11-05T21:31:27.817Z,0
2022-11-05T21:37:27.407Z,0
2022-11-05T21:43:27.444Z,0
2022-11-05T21:49:27.455Z,0
2022-11-05T21:55:27.438Z,0
2022-11-05T22:01:27.664Z,0
2022-11-05T22:07:27.429Z,0
2022-11-05T22:13:27.445Z,0
2022-11-05T22:19:27.388Z,0
2022-11-05T22:25:27.541Z,0
2022-11-05T22:31:30.562Z,0
2022-11-05T22:37:27.430Z,0
2022-11-05T22:43:27.444Z,0
2022-11-05T22:49:27.418Z,0
2022-11-05T22:55:27.423Z,0
2022-11-05T23:01:27.605Z,0
2022-11-05T23:07:28.136Z,0
2022-11-05T23:13:27.416Z,0
2022-11-05T23:19:27.436Z,0
2022-11-05T23:25:27.417Z,0
2022-11-05T23:31:27.431Z,0
2022-11-05T23:37:27.455Z,0
2022-11-05T23:43:27.413Z,0
2022-11-05T23:49:27.501Z,0
2022-11-05T23:55:27.458Z,0
